Old Somerset, Virginia
Current Conditions -  °F | °C
As of 5:35 AM on Thursday 25 Dec 2014 (Local Time) from KGVE Reporting Station
Clear Clear  
Wind Chill: 51°   Ceiling: Unl
Heat Index: 51°   Visibility: 10mi
Dew Point: 40°   Wind: 3mph
Humidity: 67%   Direction: 240°WSW
Pressure: 29.72"   Gusts: NA
Location:  38.2091°N, 78.2392°W
Report Text: KGVE 251035Z AUTO 24003KT 10SM CLR 10/05 A2972 RMK AO1 P0001 T01030045
Loading
Personal Weather Stations






























Interactive Weather Map New forecast layout! Learn more

10-Day Weather Forecast

Advertisements
Track Severe Weather on mobile